Terminal Aerodrome Forecast
Issued by NWS

Home | Current Version | Previous Version | Text Only | Print | Product List | Glossary On
Versions: 1 2 3 4 5 6 7 8 9 10 11 12 13 14
000
FTUS45 KGJT 292114 AAA
TAFVEL
TAF AMD
KVEL 292114Z 2921/3018 VRB03KT P6SM VCSH FEW120
      TEMPO 2921/2924 36013G20KT
     FM300300 30005KT P6SM SCT200
     FM301000 VRB03KT P6SM SCT200
     FM301700 12007KT P6SM SCT200=

USA.gov is the U.S. government's official web portal to all federal, state and local government web resources and services.